Time;durP1;ratioP1;P1;durP2;ratioP2;P2;SDS_P1;SDS_P2;PMS_P1;PMS_P2;Temp;Humidity;BMP_temperature;BMP_pressure;BME280_temperature;BME280_humidity;BME280_pressure;Samples;Min_cycle;Max_cycle;Signal;HPM_P1;HPM_P2
2023/01/21 00:01:46;;;;;;;;;;;;;;;0.18;77.17;102010.66;4204061;28;20673;-65
2023/01/21 00:03:48;;;;;;;;;;;;;;;0.15;77.12;102013.47;4189059;28;20016;-65
2023/01/21 00:05:50;;;;;;;;;;;;;;;0.11;77.01;102015.44;4188824;28;20016;-65
2023/01/21 00:07:52;;;;;;;;;;;;;;;0.10;77.14;102013.72;4199632;28;20023;-64
2023/01/21 00:09:54;;;;;;;43.83;23.52;;;;;;;0.09;77.36;102011.13;4205134;28;24517;-64
2023/01/21 00:11:57;;;;;;;;;;;;;;;0.08;77.49;102009.41;4204332;28;20321;-64
2023/01/21 00:13:59;;;;;;;;;;;;;;;0.06;77.58;102012.13;4205454;28;20015;-65
2023/01/21 00:16:01;;;;;;;;;;;;;;;0.06;77.75;102016.59;4206384;28;20495;-64
2023/01/21 00:18:04;;;;;;;;;;;;;;;0.08;77.94;102012.06;4205070;28;20027;-65
2023/01/21 00:20:06;;;;;;;;;;;;;;;0.10;78.09;102005.75;4205919;28;20018;-64
2023/01/21 00:22:08;;;;;;;;;;;;;;;0.11;78.02;102009.25;4204871;28;20346;-65
2023/01/21 00:24:10;;;;;;;;;;;;;;;0.10;77.92;102021.69;4206774;28;20019;-64
2023/01/21 00:26:12;;;;;;;;;;;;;;;0.09;77.85;102025.25;4206354;28;20018;-65
2023/01/21 00:28:14;;;;;;;;;;;;;;;0.08;77.94;102026.22;4205243;28;20386;-65
2023/01/21 00:30:16;;;;;;;;;;;;;;;0.09;78.28;102019.94;4203881;28;20030;-65
2023/01/21 00:32:19;;;;;;;;;;;;;;;0.10;78.32;102018.16;4219400;28;20010;-64
2023/01/21 00:34:22;;;;;;;;;;;;;;;0.11;78.31;102027.84;4203885;28;20058;-65
2023/01/21 00:36:28;;;;;;;;;;;;;;;0.11;78.29;102026.06;4205186;28;20011;-65
2023/01/21 00:38:30;;;;;;;;;;;;;;;0.10;78.22;102032.31;4204894;28;20028;-64
2023/01/21 00:40:32;;;;;;;;;;;;;;;0.11;78.33;102030.50;4205783;28;20039;-64
2023/01/21 00:42:34;;;;;;;;;;;;;;;0.12;78.32;102042.84;4204968;28;19936;-64
2023/01/21 00:44:36;;;;;;;;;;;;;;;0.11;78.25;102035.81;4204614;28;20020;-64
2023/01/21 00:46:38;;;;;;;;;;;;;;;0.08;78.15;102043.94;4203900;28;20022;-65
2023/01/21 00:48:40;;;;;;;;;;;;;;;0.08;78.16;102046.59;4204905;28;20015;-65
2023/01/21 00:50:43;;;;;;;;;;;;;;;0.08;78.10;102049.25;4205412;28;20011;-65
2023/01/21 00:52:45;;;;;;;;;;;;;;;0.05;77.97;102049.41;4205066;28;20620;-65
2023/01/21 00:54:47;;;;;;;;;;;;;;;0.02;77.99;102055.75;4205354;28;20018;-65
2023/01/21 00:56:49;;;;;;;;;;;;;;;-0.02;78.14;102049.72;4205281;28;20014;-65
2023/01/21 00:58:51;;;;;;;;;;;;;;;-0.04;78.20;102056.91;4204556;28;20011;-65
2023/01/21 01:00:59;;;;;;;;;;;;;;;-0.06;78.41;102060.59;4204746;28;20012;-65
2023/01/21 01:03:01;;;;;;;;;;;;;;;-0.07;78.39;102059.69;4204458;28;19924;-65
2023/01/21 01:05:04;;;;;;;;;;;;;;;-0.06;78.39;102061.44;4204950;28;20015;-65
2023/01/21 01:07:08;;;;;;;;;;;;;;;-0.06;78.76;102069.41;4203851;28;20409;-65
2023/01/21 01:09:11;;;;;;;;;;;;;;;-0.04;78.62;102078.16;4205357;28;20015;-65
2023/01/21 01:11:14;;;;;;;;;;;;;;;-0.04;78.50;102071.97;4204238;28;20046;-64
2023/01/21 01:13:16;;;;;;;;;;;;;;;-0.06;78.51;102073.88;4206390;28;20430;-65
2023/01/21 01:15:18;;;;;;;;;;;;;;;-0.08;78.74;102073.94;4206627;28;20011;-65
2023/01/21 01:17:20;;;;;;;;;;;;;;;-0.07;78.70;102080.94;4203266;28;20014;-65
2023/01/21 01:19:21;;;;;;;;;;;;;;;-0.05;78.61;102080.88;4205226;28;20003;-65
2023/01/21 01:21:24;;;;;;;;;;;;;;;-0.06;78.77;102085.34;4205447;28;21015;-65
2023/01/21 01:23:27;;;;;;;;;;;;;;;-0.03;78.75;102079.03;4205085;28;20465;-64
2023/01/21 01:25:29;;;;;;;;;;;;;;;-0.03;78.89;102087.84;4203026;28;20038;-65
2023/01/21 01:27:31;;;;;;;;;;;;;;;-0.05;79.01;102087.06;4203650;28;20023;-65
2023/01/21 01:29:33;;;;;;;;;;;;;;;-0.05;78.92;102087.06;4205238;28;20018;-64
2023/01/21 01:31:35;;;;;;;;;;;;;;;0.00;79.20;102089.50;4204381;28;20011;-65
2023/01/21 01:33:37;;;;;;;;;;;;;;;0.02;79.21;102095.59;4203617;28;19963;-64
2023/01/21 01:35:40;;;;;;;;;;;;;;;0.03;79.18;102094.63;4219885;28;20405;-64
2023/01/21 01:37:42;;;;;;;;;;;;;;;0.02;78.88;102090.28;4203722;28;20353;-64
2023/01/21 01:39:46;;;;;;;;;;;;;;;0.01;78.72;102093.00;4205218;28;20409;-65
2023/01/21 01:41:47;;;;;;;;;;;;;;;0.02;78.94;102090.28;4203594;28;20338;-65
2023/01/21 01:43:54;;;;;;;;;;;;;;;0.06;78.76;102090.97;4204067;28;19955;-65
2023/01/21 01:45:56;;;;;;;;;;;;;;;0.05;78.62;102094.56;4204775;28;20011;-65
2023/01/21 01:47:59;;;;;;;;;;;;;;;0.02;78.69;102084.97;4203224;28;19999;-65
2023/01/21 01:50:01;;;;;;;;;;;;;;;0.00;78.67;102094.81;4204304;28;20011;-65
2023/01/21 01:52:03;;;;;;;;;;;;;;;-0.02;78.79;102089.56;4203605;28;20010;-65
2023/01/21 01:54:05;;;;;;;;;;;;;;;-0.02;78.88;102089.56;4204925;28;20031;-63
2023/01/21 01:56:09;;;;;;;;;;;;;;;-0.01;78.91;102091.28;4204150;28;20031;-65
2023/01/21 01:58:12;;;;;;;;;;;;;;;0.02;78.99;102095.59;4202661;28;20371;-64
2023/01/21 02:00:14;;;;;;;;;;;;;;;0.04;78.86;102104.34;4203593;28;20039;-64
2023/01/21 02:02:17;;;;;;;;;;;;;;;0.04;78.99;102100.81;4204032;28;20003;-65
2023/01/21 02:04:19;;;;;;;;;;;;;;;0.04;78.97;102098.16;4203740;28;19967;-65
2023/01/21 02:06:21;;;;;;;;;;;;;;;0.04;78.89;102101.69;4204173;28;20019;-65
2023/01/21 02:08:23;;;;;;;;;;;;;;;0.05;78.93;102105.19;4203664;28;20023;-64
2023/01/21 02:10:25;;;;;;;;;;;;;;;0.08;78.85;102102.38;4203861;28;20031;-64
2023/01/21 02:12:28;;;;;;;;;;;;;;;0.11;79.00;102097.78;4203647;28;20150;-64
2023/01/21 02:14:30;;;;;;;;;;;;;;;0.11;78.70;102095.13;4204283;28;20026;-64
2023/01/21 02:16:47;;;;;;;;;;;;;;;0.12;78.63;102104.81;4204400;28;20473;-64
2023/01/21 02:18:51;;;;;;;;;;;;;;;0.13;78.58;102103.88;4202755;28;20337;-65
2023/01/21 02:21:07;;;;;;;;;;;;;;;0.14;78.79;102102.97;4205014;28;20360;-64
2023/01/21 02:23:11;;;;;;;;;;;;;;;0.15;78.65;102107.31;4202914;28;19975;-63
2023/01/21 02:25:24;;;;;;;;;;;;;;;0.13;78.65;102106.53;4204244;28;19920;-63
2023/01/21 02:27:38;;;;;;;;;;;;;;;0.11;78.47;102113.75;4203373;28;20512;-64
2023/01/21 02:29:48;;;;;;;;;;;;;;;0.11;78.55;102116.41;4203786;28;20452;-63
2023/01/21 02:31:53;;;;;;;;;;;;;;;0.12;78.74;102122.56;4202710;28;20015;-63
2023/01/21 02:34:05;;;;;;;;;;;;;;;0.14;78.77;102118.91;4204152;28;20333;-64
2023/01/21 02:36:13;;;;;;;;;;;;;;;0.16;78.70;102117.03;4203341;28;20019;-63
2023/01/21 02:38:17;;;;;;;;;;;;;;;0.18;78.61;102108.97;4203383;28;20412;-63
2023/01/21 02:40:20;;;;;;;;;;;;;;;0.18;78.49;102116.94;4205006;28;20007;-64
2023/01/21 02:42:23;;;;;;;;;;;;;;;0.19;78.32;102121.34;4201774;28;20230;-64
2023/01/21 02:44:27;;;;;;;;;;;;;;;0.19;78.04;102118.69;4187184;28;20360;-64
2023/01/21 02:46:31;;;;;;;;;;;;;;;0.18;78.07;102123.09;4186799;28;19947;-63
2023/01/21 02:48:33;;;;;;;;;;;;;;;0.20;77.94;102109.75;4186725;28;20449;-63
2023/01/21 02:50:37;;;;;;;;;;;;;;;0.22;78.07;102107.91;4187014;28;20015;-64
2023/01/21 02:52:39;;;;;;;;;;;;;;;0.25;78.07;102101.56;4195608;28;20448;-64
2023/01/21 02:54:48;;;;;;;;;;;;;;;0.27;77.96;102097.03;4203929;28;20018;-63
2023/01/21 02:56:50;;;;;;;;;;;;;;;0.27;77.94;102092.56;4202737;28;20018;-64
2023/01/21 02:58:53;;;;;;;;;;;;;;;0.29;77.97;102089.84;4204312;28;20015;-64
2023/01/21 03:00:57;;;;;;;;;;;;;;;0.30;77.91;102100.41;4204199;28;20007;-63
2023/01/21 03:03:17;;;;;;;;;;;;;;;0.30;77.83;102113.69;4203490;28;20028;-63
2023/01/21 03:05:20;;;;;;;;;;;;;;;0.30;77.89;102113.69;4204241;28;20024;-63
2023/01/21 03:07:26;;;;;;;;;;;;;;;0.28;77.67;102118.22;4203372;28;20441;-63
2023/01/21 03:09:28;;;;;;;;;;;;;;;0.26;77.71;102122.72;4203938;28;20441;-64
2023/01/21 03:11:30;;;;;;;;;;;;;;;0.27;77.54;102124.47;4203978;28;20035;-64
2023/01/21 03:18:13;;;;;;;;;;;;;;;0.30;77.68;102134.09;4203006;28;20007;-64
2023/01/21 03:20:15;;;;;;;;;;;;;;;0.29;77.75;102130.56;4205328;28;20014;-64
2023/01/21 03:22:17;;;;;;;;;;;;;;;0.30;77.83;102132.28;4202341;28;20364;-64
2023/01/21 03:24:21;;;;;;;;;;;;;;;0.32;77.91;102130.41;4202491;28;20023;-64
2023/01/21 03:26:24;;;;;;;;;;;;;;;0.32;77.94;102129.56;4203389;28;20354;-64
2023/01/21 03:28:26;;;;;;;;;;;;;;;0.33;77.90;102129.47;4186826;28;19920;-64
2023/01/21 03:30:28;;;;;;;;;;;;;;;0.36;77.75;102131.09;4186797;28;20517;-64
2023/01/21 03:32:31;;;;;;;;;;;;;;;0.36;77.67;102131.09;4186830;28;20050;-64
2023/01/21 03:34:33;;;;;;;;;;;;;;;0.36;77.59;102133.75;4186006;28;20011;-64
2023/01/21 03:36:36;;;;;;;;;;;;;;;0.38;77.59;102128.38;4185847;28;20015;-65
2023/01/21 03:38:39;;;;;;;;;;;;;;;0.38;77.46;102123.94;4202982;28;20018;-64
2023/01/21 03:40:43;;;;;;;;;;;;;;;0.40;77.73;102118.53;4202584;28;20016;-64
2023/01/21 03:42:45;;;;;;;;;;;;;;;0.40;77.65;102118.53;4202279;28;20011;-64
2023/01/21 03:44:47;;;;;;;;;;;;;;;0.43;77.70;102113.06;4202695;28;20010;-64
2023/01/21 03:46:51;;;;;;;;;;;;;;;0.45;77.50;102119.16;4201605;28;20023;-64
2023/01/21 03:48:54;;;;;;;;;;;;;;;0.45;77.23;102113.84;4202378;28;20011;-64
2023/01/21 03:50:56;;;;;;;;;;;;;;;0.46;77.49;102111.09;4202622;28;20023;-64
2023/01/21 03:52:59;;;;;;;;;;;;;;;0.46;77.29;102103.13;4202227;28;20003;-64
2023/01/21 03:55:01;;;;;;;;;;;;;;;0.47;77.33;102103.97;4201045;28;19920;-64
2023/01/21 03:57:05;;;;;;;;;;;;;;;0.47;77.26;102102.22;4198517;28;20483;-64
2023/01/21 03:59:07;;;;;;;;;;;;;;;0.47;77.20;102106.63;4186638;28;20019;-64
2023/01/21 04:01:09;;;;;;;;;;;;;;;0.46;77.37;102108.44;4185755;28;20004;-64
2023/01/21 04:03:11;;;;;;;;;;;;;;;0.48;77.42;102113.69;4185997;28;20019;-64
2023/01/21 04:05:13;;;;;;;;;;;;;;;0.48;77.29;102108.38;4186906;28;20016;-64
2023/01/21 04:07:15;;;;;;;;;;;;;;;0.49;77.22;102105.63;4185977;28;20000;-64
2023/01/21 04:09:18;;;;;;;;;;;;;;;0.50;77.39;102107.38;4189787;28;19924;-64
2023/01/21 04:11:20;;;;;;;;;;;;;;;0.52;77.15;102110.78;4171171;28;19927;-64
2023/01/21 04:13:23;;;;;;;;;;;;;;;0.52;77.19;102113.44;4188986;28;20110;-65
2023/01/21 04:15:25;;;;;;;;;;;;;;;0.53;77.21;102112.53;4188357;28;20027;-64
2023/01/21 04:17:28;;;;;;;;;;;;;;;0.53;76.88;102107.22;4195930;28;20014;-64
2023/01/21 04:19:30;;;;;;;;;;;;;;;0.57;76.99;102112.38;4220429;28;20026;-64
2023/01/21 04:21:32;;;;;;;;;;;;;;;0.55;76.89;102115.09;4205700;28;20035;-64
2023/01/21 04:23:34;;;;;;;;;;;;;;;0.55;76.82;102112.44;4205272;28;20011;-64
2023/01/21 04:25:36;;;;;;;;;;;;;;;0.55;76.83;102115.09;4205212;28;20031;-64
2023/01/21 04:27:38;;;;;;;;;;;;;;;0.55;76.67;102112.44;4204069;28;20047;-64
2023/01/21 04:29:41;;;;;;;;;;;;;;;0.54;76.80;102119.53;4204936;28;20014;-64
2023/01/21 04:31:43;;;;;;;;;;;;;;;0.54;76.57;102124.00;4204552;28;20015;-65
2023/01/21 04:33:45;;;;;;;;;;;;;;;0.56;76.77;102122.13;4206217;28;20014;-64
2023/01/21 04:35:47;;;;;;;;;;;;;;;0.56;76.45;102116.81;4207291;28;20014;-64
2023/01/21 04:37:49;;;;;;;;;;;;;;;0.56;76.49;102127.44;4206492;28;20372;-64
2023/01/21 04:39:51;;;;;;;;;;;;;;;0.57;76.59;102123.00;4207109;28;20437;-64
2023/01/21 04:41:53;;;;;;;;;;;;;;;0.58;76.47;102130.91;4205630;28;20030;-64
2023/01/21 04:43:55;;;;;;;;;;;;;;;0.59;76.53;102123.78;4206395;28;20014;-64
2023/01/21 04:45:58;;;;;;;;;;;;;;;0.57;76.29;102128.31;4207183;28;20011;-64
2023/01/21 04:48:00;;;;;;;;;;;;;;;0.54;76.38;102134.66;4193549;28;20414;-64
2023/01/21 04:50:03;;;;;;;;;;;;;;;0.52;76.44;102126.75;4189074;28;19924;-64
2023/01/21 04:52:05;;;;;;;;;;;;;;;0.52;76.70;102126.75;4187833;28;20011;-65
2023/01/21 04:54:08;;;;;;;;;;;;;;;0.53;76.69;102130.25;4186900;28;20007;-63
2023/01/21 04:56:10;;;;;;;;;;;;;;;0.52;76.68;102133.88;4188262;28;20021;-64
2023/01/21 04:58:12;;;;;;;;;;;;;;;0.49;76.54;102134.88;4201564;28;20007;-64
2023/01/21 05:00:15;;;;;;;;;;;;;;;0.48;76.76;102133.16;4204062;28;20019;-64
2023/01/21 05:02:18;;;;;;;;;;;;;;;0.50;77.00;102133.94;4198327;28;20671;-63
2023/01/21 05:04:20;;;;;;;;;;;;;;;0.51;76.83;102135.66;4189263;28;20020;-64
2023/01/21 05:06:22;;;;;;;;;;;;;;;0.48;77.03;102122.50;4188894;28;20015;-64
2023/01/21 05:08:24;;;;;;;;;;;;;;;0.54;76.80;102142.63;4188394;28;20020;-64
2023/01/21 05:10:26;;;;;;;;;;;;;;;0.56;76.69;102150.53;4188402;28;19924;-64
2023/01/21 05:12:28;;;;;;;;;;;;;;;0.56;76.59;102151.38;4188391;28;20024;-64
2023/01/21 05:14:30;;;;;;;;;;;;;;;0.57;76.75;102161.06;4188600;28;20059;-64
2023/01/21 05:16:32;;;;;;;;;;;;;;;0.58;76.78;102160.16;4188663;28;20019;-64
2023/01/21 05:18:35;;;;;;;;;;;;;;;0.59;76.63;102148.56;4186859;28;20008;-64
2023/01/21 05:20:37;;;;;;;;;;;;;;;0.58;76.56;102152.19;4202928;28;20019;-64
2023/01/21 05:22:39;;;;;;;;;;;;;;;0.62;76.61;102150.22;4187433;28;20019;-64
2023/01/21 05:24:41;;;;;;;;;;;;;;;0.63;76.57;102157.25;4188674;28;20020;-64
2023/01/21 05:26:43;;;;;;;;;;;;;;;0.62;76.65;102160.84;4188520;28;20023;-64
2023/01/21 05:28:45;;;;;;;;;;;;;;;0.62;76.48;102166.16;4204873;28;20019;-64
2023/01/21 05:30:47;;;;;;;;;;;;;;;0.57;76.41;102146.94;4204204;28;19924;-63
2023/01/21 05:32:49;;;;;;;;;;;;;;;0.62;76.61;102174.16;4203506;28;20011;-64
2023/01/21 05:34:53;;;;;;;;;;;;;;;0.60;76.70;102165.41;4203682;28;20035;-64
2023/01/21 05:36:55;;;;;;;;;;;;;;;0.60;76.54;102166.25;4203497;28;20018;-64
2023/01/21 05:38:57;;;;;;;;;;;;;;;0.59;76.67;102176.94;4205029;28;20024;-64
2023/01/21 05:40:59;;;;;;;;;;;;;;;0.60;76.85;102178.69;4204557;28;20022;-64
2023/01/21 05:43:01;;;;;;;;;;;;;;;0.59;76.93;102179.63;4203445;28;20568;-64
2023/01/21 05:45:03;;;;;;;;;;;;;;;0.57;76.88;102182.34;4205622;28;20014;-64
2023/01/21 05:47:06;;;;;;;;;;;;;;;0.57;77.05;102179.69;4204042;28;20441;-64
2023/01/21 05:49:08;;;;;;;;;;;;;;;0.59;76.92;102180.47;4204537;28;20028;-64
2023/01/21 05:51:11;;;;;;;;;;;;;;;0.59;77.06;102185.78;4204627;28;19920;-64
2023/01/21 05:53:13;;;;;;;;;;;;;;;0.57;76.91;102181.50;4203531;28;20437;-64
2023/01/21 05:55:15;;;;;;;;;;;;;;;0.55;76.99;102176.25;4203724;28;20027;-63
2023/01/21 05:57:17;;;;;;;;;;;;;;;0.54;77.04;102174.53;4203311;28;20019;-64
2023/01/21 05:59:19;;;;;;;;;;;;;;;0.54;77.42;102183.34;4204169;28;20054;-64
2023/01/21 06:01:21;;;;;;;;;;;;;;;0.55;77.46;102181.56;4218684;28;20018;-64
2023/01/21 06:03:23;;;;;;;;;;;;;;;0.56;77.48;102190.41;4203692;28;20060;-64
2023/01/21 06:05:25;;;;;;;;;;;;;;;0.56;77.55;102188.59;4204256;28;20433;-64
2023/01/21 06:07:28;;;;;;;;;;;;;;;0.56;77.57;102179.78;4203393;28;20030;-64
2023/01/21 06:09:30;;;;;;;;;;;;;;;0.59;77.40;102179.63;4204248;28;20334;-64
2023/01/21 06:11:32;;;;;;;;;;;;;;;0.60;77.59;102181.34;4203399;28;19930;-64
2023/01/21 06:13:34;;;;;;;;;;;;;;;0.58;77.42;102184.09;4203565;28;20014;-65
2023/01/21 06:15:36;;;;;;;;;;;;;;;0.60;77.63;102191.97;4204508;28;20366;-64
2023/01/21 06:17:38;;;;;;;;;;;;;;;0.62;77.55;102190.09;4204149;28;20992;-65
2023/01/21 06:19:40;;;;;;;;;;;;;;;0.63;77.46;102192.69;4204775;28;20018;-64
2023/01/21 06:21:42;;;;;;;;;;;;;;;0.64;77.43;102204.16;4203011;28;20031;-64
2023/01/21 06:23:46;;;;;;;;;;;;;;;0.65;77.65;102211.22;4204891;28;20908;-64
2023/01/21 06:25:48;;;;;;;;;;;;;;;0.63;77.50;102202.47;4203813;28;20007;-64
2023/01/21 06:27:50;;;;;;;;;;;;;;;0.64;77.63;102210.38;4204014;28;19924;-64
2023/01/21 06:29:52;;;;;;;;;;;;;;;0.67;77.43;102215.50;4204313;28;20007;-64
2023/01/21 06:31:54;;;;;;;;;;;;;;;0.66;77.48;102200.50;4202992;28;19924;-65
2023/01/21 06:33:56;;;;;;;;;;;;;;;0.67;77.36;102199.53;4204023;28;20022;-65
2023/01/21 06:35:58;;;;;;;;;;;;;;;0.66;77.58;102208.47;4204441;28;20014;-65
2023/01/21 06:38:00;;;;;;;;;;;;;;;0.69;77.42;102215.44;4204095;28;20382;-65
2023/01/21 06:40:03;;;;;;;;;;;;;;;0.69;77.43;102213.66;4204436;28;20010;-64
2023/01/21 06:42:05;;;;;;;;;;;;;;;0.69;77.41;102215.44;4202442;28;20023;-65
2023/01/21 06:44:07;;;;;;;;;;;;;;;0.68;77.57;102219.91;4204476;28;20018;-64
2023/01/21 06:46:10;;;;;;;;;;;;;;;0.69;77.76;102218.97;4204897;28;20019;-64
2023/01/21 06:48:12;;;;;;;;;;;;;;;0.69;77.64;102213.66;4204441;28;20359;-64
2023/01/21 06:50:16;;;;;;;;;;;;;;;0.68;77.54;102211.06;4204585;28;19999;-64
2023/01/21 06:52:18;;;;;;;;;;;;;;;0.69;77.67;102216.31;4205203;28;20022;-65
2023/01/21 06:54:20;;;;;;;;;;;;;;;0.71;77.64;102216.22;4206016;28;20014;-63
2023/01/21 06:56:23;;;;;;;;;;;;;;;0.69;77.56;102218.09;4205854;28;20023;-65
2023/01/21 06:58:25;;;;;;;;;;;;;;;0.70;77.57;102218.00;4188479;28;20018;-66
2023/01/21 07:00:27;;;;;;;;;;;;;;;0.73;77.71;102218.81;4187424;28;20027;-65
2023/01/21 07:02:29;;;;;;;;;;;;;;;0.74;77.65;102216.09;4186544;28;20019;-64
2023/01/21 07:04:31;;;;;;;;;;;;;;;0.76;77.39;102218.66;4187476;28;20006;-64
2023/01/21 07:06:33;;;;;;;;;;;;;;;0.76;77.21;102216.84;4187829;28;20043;-64
2023/01/21 07:08:35;;;;;;;;;;;;;;;0.77;77.45;102223.91;4187085;28;20558;-64
2023/01/21 07:10:37;;;;;;;;;;;;;;;0.79;77.19;102221.16;4187916;28;20015;-64
2023/01/21 07:12:40;;;;;;;;;;;;;;;0.80;77.05;102225.53;4195016;28;20414;-64
2023/01/21 07:14:42;;;;;;;;;;;;;;;0.81;76.77;102224.59;4203636;28;20837;-64
2023/01/21 07:16:44;;;;;;;;;;;;;;;0.80;76.84;102231.72;4200940;28;20011;-64
2023/01/21 07:18:46;;;;;;;;;;;;;;;0.79;76.59;102229.16;4204444;28;20019;-64
2023/01/21 07:20:48;;;;;;;;;;;;;;;0.78;76.58;102230.94;4204903;28;20011;-62
2023/01/21 07:22:50;;;;;;;;;;;;;;;0.78;76.55;102222.09;4203553;28;20014;-64
2023/01/21 07:24:52;;;;;;;;;;;;;;;0.79;76.51;102224.69;4204691;28;20014;-64
2023/01/21 07:26:55;;;;;;;;;;;;;;;0.80;76.20;102226.41;4202946;28;20018;-64
2023/01/21 07:28:59;;;;;;;;;;;;;;;0.78;76.06;102220.28;4204300;28;20015;-64
2023/01/21 07:31:01;;;;;;;;;;;;;;;0.77;76.09;102223.91;4202949;28;20643;-64
2023/01/21 07:33:05;;;;;;;;;;;;;;;0.77;76.13;102226.56;4202109;28;20637;-65
2023/01/21 07:35:07;;;;;;;;;;;;;;;0.78;76.24;102230.06;4203797;28;20027;-64
2023/01/21 07:37:09;;;;;;;;;;;;;;;0.78;76.11;102230.94;4203685;28;20002;-64
2023/01/21 07:39:11;;;;;;;;;;;;;;;0.77;76.26;102238.97;4204073;28;20011;-65
2023/01/21 07:41:13;;;;;;;;;;;;;;;0.75;76.26;102239.06;4204024;28;20430;-64
2023/01/21 07:43:15;;;;;;;;;;;;;;;0.74;76.36;102250.66;4203428;28;20441;-64
2023/01/21 07:45:18;;;;;;;;;;;;;;;0.75;76.45;102248.84;4208067;28;20010;-66
2023/01/21 07:47:20;;;;;;;;;;;;;;;0.76;76.53;102250.56;4206196;28;20350;-65
2023/01/21 07:49:22;;;;;;;;;;;;;;;0.74;76.57;102250.66;4207353;28;20018;-65
2023/01/21 07:51:24;;;;;;;;;;;;;;;0.74;76.65;102255.97;4207999;28;20019;-64
2023/01/21 07:53:26;;;;;;;;;;;;;;;0.74;76.63;102248.00;4207049;28;19938;-64
2023/01/21 07:55:28;;;;;;;;;;;;;;;0.77;76.76;102250.50;4208026;28;20023;-64
2023/01/21 07:57:30;;;;;;;;;;;;;;;0.79;76.63;102253.09;4207093;28;20785;-64
2023/01/21 07:59:32;;;;;;;;;;;;;;;0.77;76.63;102253.16;4207784;28;20039;-64
2023/01/21 08:01:36;;;;;;;;;;;;;;;0.78;76.70;102252.19;4206336;28;20023;-64
2023/01/21 08:03:38;;;;;;;;;;;;;;;0.78;76.78;102254.00;4207709;28;20018;-64
2023/01/21 08:05:40;;;;;;;;;;;;;;;0.79;76.67;102248.63;4207990;28;20031;-64
2023/01/21 08:07:41;;;;;;;;;;;;;;;0.81;76.80;102253.88;4206293;28;20006;-64
2023/01/21 08:09:43;;;;;;;;;;;;;;;0.80;76.95;102241.50;4206840;28;20019;-64
2023/01/21 08:11:45;;;;;;;;;;;;;;;0.82;76.77;102248.47;4204308;28;19999;-64
2023/01/21 08:13:48;;;;;;;;;;;;;;;0.84;76.72;102251.91;4190736;28;19920;-64
2023/01/21 08:15:50;;;;;;;;;;;;;;;0.87;76.55;102246.44;4190412;28;20007;-64
2023/01/21 08:17:55;;;;;;;;;;;;;;;0.89;76.50;102246.34;4197807;28;20019;-64
2023/01/21 08:19:57;;;;;;;;;;;;;;;0.89;76.43;102246.34;4204097;28;20003;-65
2023/01/21 08:21:59;;;;;;;;;;;;;;;0.88;76.49;102245.50;4199619;28;20023;-65
2023/01/21 08:24:01;;;;;;;;;;;;;;;0.87;76.56;102241.09;4189775;28;20908;-64
2023/01/21 08:26:04;;;;;;;;;;;;;;;0.87;76.51;102253.56;4188409;28;20027;-64
2023/01/21 08:28:06;;;;;;;;;;;;;;;0.86;76.53;102254.47;4201054;28;20016;-64
2023/01/21 08:30:08;;;;;;;;;;;;;;;0.87;76.77;102257.06;4205651;28;20011;-64
2023/01/21 08:32:10;;;;;;;;;;;;;;;0.87;76.44;102256.22;4205890;28;20339;-63
2023/01/21 08:34:14;;;;;;;;;;;;;;;0.88;76.50;102249.97;4222300;28;19953;-64
2023/01/21 08:36:16;;;;;;;;;;;;;;;0.90;76.56;102245.44;4206836;28;20011;-64
2023/01/21 08:38:18;;;;;;;;;;;;;;;0.91;76.34;102249.81;4205669;28;20031;-64
2023/01/21 08:40:20;;;;;;;;;;;;;;;0.92;76.47;102251.50;4206166;28;20014;-63
2023/01/21 08:42:21;;;;;;;;;;;;;;;0.94;76.57;102254.09;4205312;28;20477;-64
2023/01/21 08:44:23;;;;;;;;;;;;;;;0.94;76.50;102248.78;4204705;28;20003;-63
2023/01/21 08:46:25;;;;;;;;;;;;;;;0.95;76.44;102247.84;4206561;28;20373;-63
2023/01/21 08:48:28;;;;;;;;;;;;;;;0.95;76.43;102245.19;4205345;28;20019;-64
2023/01/21 08:50:31;;;;;;;;;;;;;;;0.96;76.42;102249.59;4205458;28;20020;-64
2023/01/21 08:52:33;;;;;;;;;;;;;;;0.95;76.47;102240.72;4204774;28;20027;-64
2023/01/21 08:54:35;;;;;;;;;;;;;;;0.97;76.36;102251.28;4205899;28;19924;-64
2023/01/21 08:56:37;;;;;;;;;;;;;;;0.98;76.61;102247.69;4205032;28;20016;-64
2023/01/21 08:58:39;;;;;;;;;;;;;;;0.98;76.24;102248.56;4189960;28;20014;-64
2023/01/21 09:00:42;;;;;;;;;;;;;;;1.00;76.45;102244.00;4189472;28;20053;-64
2023/01/21 09:02:44;;;;;;;;;;;;;;;1.02;76.40;102243.94;4188855;28;20034;-64
2023/01/21 09:04:46;;;;;;;;;;;;;;;1.02;76.53;102242.16;4188699;28;20020;-64
2023/01/21 09:06:49;;;;;;;;;;;;;;;1.01;76.46;102245.72;4188421;28;20007;-64
2023/01/21 09:08:51;;;;;;;;;;;;;;;1.03;76.33;102243.84;4189411;28;20011;-64
2023/01/21 09:11:02;;;;;;;;;;;;;;;1.05;76.35;102246.44;4188896;28;20019;-64
2023/01/21 09:13:04;;;;;;;;;;;;;;;1.05;76.50;102249.09;4187028;28;20014;-64
2023/01/21 09:15:07;;;;;;;;;;;;;;;1.06;76.46;102251.69;4203768;28;19920;-64
2023/01/21 09:17:09;;;;;;;;;;;;;;;1.06;76.38;102254.34;4188779;28;20007;-64
2023/01/21 09:19:11;;;;;;;;;;;;;;;1.07;76.39;102253.41;4189611;28;20043;-64
2023/01/21 09:21:13;;;;;;;;;;;;;;;1.07;76.50;102248.09;4188098;28;20026;-65
2023/01/21 09:23:26;;;;;;;;;;;;;;;1.07;76.45;102247.22;4187677;28;20019;-64
2023/01/21 09:25:28;;;;;;;;;;;;;;;1.07;76.30;102249.91;4189147;28;20039;-64
2023/01/21 09:27:30;;;;;;;;;;;;;;;1.09;76.19;102253.34;4188118;28;20365;-64
2023/01/21 09:29:32;;;;;;;;;;;;;;;1.12;76.42;102250.50;4188254;28;20024;-64
2023/01/21 09:31:34;;;;;;;;;;;;;;;1.13;76.10;102252.25;4188508;28;20003;-64
2023/01/21 09:33:36;;;;;;;;;;;;;;;1.15;76.10;102250.34;4186591;28;20320;-65
2023/01/21 09:35:38;;;;;;;;;;;;;;;1.17;76.25;102251.13;4188319;28;19924;-64
2023/01/21 09:37:40;;;;;;;;;;;;;;;1.19;76.01;102259.91;4187823;28;20019;-65
2023/01/21 09:39:44;;;;;;;;;;;;;;;1.19;75.80;102251.06;4188414;28;20007;-64
2023/01/21 09:41:48;;;;;;;;;;;;;;;1.19;75.91;102243.94;4187337;28;20011;-64
2023/01/21 09:43:52;;;;;;;;;;;;;;;1.16;75.75;102253.88;4187756;28;20011;-63
2023/01/21 09:45:54;;;;;;;;;;;;;;;1.22;75.63;102257.09;4186341;28;20357;-65
2023/01/21 09:47:56;;;;;;;;;;;;;;;1.23;75.84;102250.81;4186637;28;20027;-65
2023/01/21 09:49:58;;;;;;;;;;;;;;;1.25;75.87;102258.72;4188062;28;20514;-65
2023/01/21 09:52:06;;;;;;;;;;;;;;;1.25;75.75;102250.72;4186173;28;20015;-65
2023/01/21 09:54:10;;;;;;;;;;;;;;;1.28;75.70;102244.41;4187776;28;20023;-65
2023/01/21 09:56:15;;;;;;;;;;;;;;;1.28;75.41;102245.25;4188187;28;20700;-64
2023/01/21 09:58:19;;;;;;;;;;;;;;;1.30;75.56;102246.06;4186564;28;20579;-64
2023/01/21 10:00:26;;;;;;;;;;;;;;;1.30;75.45;102240.72;4187261;28;20011;-64
2023/01/21 10:02:30;;;;;;;;;;;;;;;1.32;75.32;102236.19;4187160;28;20058;-65
2023/01/21 10:04:32;;;;;;;;;;;;;;;1.32;75.40;102238.84;4187958;28;20019;-64
2023/01/21 10:06:37;;;;;;;;;;;;;;;1.32;75.20;102236.19;4186888;28;20476;-65
2023/01/21 10:08:42;;;;;;;;;;;;;;;1.35;75.17;102243.13;4187419;28;20015;-64
2023/01/21 10:10:46;;;;;;;;;;;;;;;1.35;75.15;102238.69;4187594;28;20641;-64
2023/01/21 10:13:00;;;;;;;;;;;;;;;1.37;75.04;102233.28;4186642;28;20011;-64
2023/01/21 10:15:19;;;;;;;;;;;;;;;1.38;74.71;102238.53;4188356;28;20008;-65
2023/01/21 10:17:21;;;;;;;;;;;;;;;1.40;74.92;102241.97;4186333;28;19931;-64
2023/01/21 10:19:28;;;;;;;;;;;;;;;1.42;74.92;102239.22;4186789;28;20054;-64
2023/01/21 10:21:30;;;;;;;;;;;;;;;1.41;74.87;102238.38;4186367;28;20019;-65
2023/01/21 10:23:34;;;;;;;;;;;;;;;1.42;74.65;102234.75;4184947;28;20054;-64
2023/01/21 10:25:35;;;;;;;;;;;;;;;1.44;74.72;102230.22;4187805;28;20047;-65
2023/01/21 10:27:37;;;;;;;;;;;;;;;1.45;74.72;102228.41;4186360;28;20019;-64
2023/01/21 10:29:41;;;;;;;;;;;;;;;1.46;74.69;102219.50;4185171;28;20011;-65
2023/01/21 10:31:44;;;;;;;;;;;;;;;1.47;74.31;102221.19;4186113;28;20004;-65
2023/01/21 10:33:46;;;;;;;;;;;;;;;1.49;74.34;102223.75;4188231;28;20031;-65
2023/01/21 10:35:52;;;;;;;;;;;;;;;1.50;74.30;102218.34;4187029;28;20019;-65
2023/01/21 10:37:55;;;;;;;;;;;;;;;1.52;74.42;102218.28;4185936;28;19924;-65
2023/01/21 10:39:59;;;;;;;;;;;;;;;1.52;74.26;102212.94;4187361;28;20346;-65
2023/01/21 10:42:07;;;;;;;;;;;;;;;1.52;74.19;102216.50;4201075;28;20015;-65
2023/01/21 10:44:12;;;;;;;;;;;;;;;1.48;73.90;102198.09;4186970;28;20035;-65